0NK6 weather

Lapeer Flyer Airport
Marathon, New York, United States

Public forecast

Using degrees Fahrenheit for public forecast. Weather courtesy of forecast.io.

Closest aviation weather report (METAR) to Lapeer Flyer Airport

Closest report is Cortland County Chase Field, 10.8 nm (20.0 km) NNW. Retrieved 2019/10/24 01:35 UTC (0 seconds ago):

KN03 240135Z AUTO 00000KT 10SM CLR 03/01 A3011 RMK AO2

Closest aviation forecast (TAF) to Lapeer Flyer Airport

Closest forecast is Greater Binghamton/Edwin A Link field, 14.6 nm (27.1 km) SSE. Retrieved 2019-10-24 00:22 UTC (1 hour ago):

TAF KBGM 232320Z 2400/2424 25006KT P6SM FEW250 FM240800 21006KT P6SM SKC WS015/25030KT FM241300 20008KT P6SM FEW250 FM241500 22011G21KT P6SM FEW100 FM242200 25011KT P6SM FEW100